Time;durP1;ratioP1;P1;durP2;ratioP2;P2;SDS_P1;SDS_P2;PMS_P1;PMS_P2;Temp;Humidity;BMP_temperature;BMP_pressure;BME280_temperature;BME280_humidity;BME280_pressure;Samples;Min_cycle;Max_cycle;Signal;HPM_P1;HPM_P2
2023/07/09 00:00:04;;;;;;;;;;;;;;;24.44;53.43;101717.84;5081401;28;20366;-72
2023/07/09 00:02:29;;;;;;;;;;;;;;;24.44;53.23;101720.56;5048392;28;19979;-72
2023/07/09 00:04:54;;;;;;;;;;;;;;;24.44;53.54;101723.28;5045613;28;19970;-72
2023/07/09 00:07:30;;;;;;;;;;;;;;;24.44;53.13;101717.84;5033574;28;19913;-72
2023/07/09 00:09:55;;;;;;;;;;;;;;;24.43;53.38;101708.00;5086928;28;19913;-72
2023/07/09 00:12:20;;;;;;;;;;;;;;;24.44;53.23;101717.84;5050744;28;19935;-72
2023/07/09 00:14:46;;;;;;;;;;;;;;;24.44;53.48;101713.25;5051404;28;20007;-72
2023/07/09 00:17:11;;;;;;;;;;;;;;;24.43;53.31;101708.84;5052512;28;19921;-72
2023/07/09 00:19:37;;;;;;;;;;;;;;;24.44;53.30;101709.69;5051272;28;19928;-72
2023/07/09 00:22:02;;;;;;;;;;;;;;;24.43;53.21;101708.84;5048791;28;20302;-72
2023/07/09 00:24:27;;;;;;;;;;;;;;;24.43;53.10;101713.44;5052404;28;20321;-72
2023/07/09 00:26:52;;;;;;;;;;;;;;;24.43;53.13;101699.88;5046663;28;19917;-72
2023/07/09 00:29:18;;;;;;;;;;;;;;;24.43;53.12;101705.28;5052461;28;19936;-72
2023/07/09 00:31:43;;;;;;;;;;;;;;;24.42;53.14;101701.75;5065599;28;19917;-72
2023/07/09 00:34:11;;;;;;;;;;;;;;;24.42;53.19;101707.19;5049503;28;19917;-72
2023/07/09 00:36:37;;;;;;;;;;;;;;;24.42;53.00;101717.19;5053180;28;19945;-72
2023/07/09 00:39:05;;;;;;;;;;;;;;;24.41;53.17;101704.63;5050383;28;19936;-72
2023/07/09 00:41:36;;;;;;;;;;;;;;;24.41;53.20;101696.47;5052891;28;19912;-72
2023/07/09 00:44:24;;;;;;;;;;;;;;;24.40;53.14;101694.78;5050990;28;19923;-72
2023/07/09 00:46:49;;;;;;;;;;;;;;;24.40;53.03;101700.22;5053780;28;19913;-72
2023/07/09 00:49:16;;;;;;;;;;;;;;;24.39;53.14;101714.84;5051094;28;19938;-72
2023/07/09 00:51:45;;;;;;;;;;;;;;;24.38;52.88;101716.72;5052248;28;20292;-72
2023/07/09 00:54:19;;;;;;;;;;;;;;;24.38;53.03;101713.13;5047414;28;19935;-72
2023/07/09 00:56:44;;;;;;;;;;;;;;;24.36;53.20;101716.03;5049039;28;19948;-72
2023/07/09 00:59:11;;;;;;;;;;;;;;;24.35;53.13;101717.06;5081574;28;19914;-72
2023/07/09 01:01:36;;;;;;;;;;;;;;;24.35;53.04;101718.94;5086001;28;19951;-72
2023/07/09 01:04:03;;;;;;;;;;;;;;;24.34;53.00;101720.81;5057035;28;19913;-72
2023/07/09 01:06:34;;;;;;;;;;;;;;;24.34;53.06;101717.22;5053523;28;19913;-72
2023/07/09 01:09:00;;;;;;;;;;;;;;;24.33;52.93;101721.81;5071079;28;19917;-72
2023/07/09 01:11:26;;;;;;;;;;;;;;;24.33;53.12;101723.69;5056556;28;19913;-72
2023/07/09 01:13:51;;;;;;;;;;;;;;;24.31;53.08;101721.19;5054305;28;19913;-72
2023/07/09 01:16:17;;;;;;;;;;;;;;;24.32;53.06;101719.31;5053404;28;19912;-72
2023/07/09 01:18:43;;;;;;;;;;;;;;;24.31;52.93;101714.91;5054309;28;20416;-72
2023/07/09 01:21:15;;;;;;;;;;;;;;;24.31;52.89;101717.63;5053958;28;19979;-72
2023/07/09 01:23:43;;;;;;;;;;;;;;;24.30;52.93;101716.78;5094000;28;19941;-72
2023/07/09 01:26:08;;;;;;;;;;;;;;;24.30;52.91;101718.63;5072098;28;20000;-72
2023/07/09 01:28:33;;;;;;;;;;;;;;;24.29;53.02;101715.06;5050719;28;19924;-72
2023/07/09 01:31:00;;;;;;;;;;;;;;;24.28;53.00;101710.66;5055365;28;20005;-72
2023/07/09 01:33:26;;;;;;;;;;;;;;;24.28;52.96;101707.94;5035886;28;19918;-72
2023/07/09 01:35:52;;;;;;;;;;;;;;;24.28;53.11;101701.69;5053480;28;19917;-72
2023/07/09 01:38:20;;;;;;;;;;;;;;;24.26;52.91;101710.03;5055928;28;19999;-72
2023/07/09 01:40:46;;;;;;;;;;;;;;;24.26;52.95;101707.31;5036920;28;20406;-72
2023/07/09 01:43:11;;;;;;;;;;;;;;;24.28;52.94;101715.25;5055964;28;20004;-72
2023/07/09 01:45:36;;;;;;;;;;;;;;;24.25;52.96;101716.47;5056360;28;19913;-72
2023/07/09 01:48:02;;;;;;;;;;;;;;;24.25;52.97;101712.91;5052576;28;19917;-72
2023/07/09 01:50:27;;;;;;;;;;;;;;;24.25;52.97;101711.03;5034289;28;19923;-72
2023/07/09 01:52:53;;;;;;;;;;;;;;;24.25;52.91;101710.19;5052954;28;19996;-72
2023/07/09 01:55:19;;;;;;;;;;;;;;;24.25;52.87;101710.19;5066968;28;19934;-73
2023/07/09 01:57:45;;;;;;;;;;;;;;;24.24;52.86;101712.06;5053615;28;19917;-72
2023/07/09 02:00:13;;;;;;;;;;;;;;;24.25;52.87;101707.47;5051551;28;19921;-72
2023/07/09 02:02:38;;;;;;;;;;;;;;;24.23;52.91;101710.38;5052400;28;19913;-72
2023/07/09 02:05:04;;;;;;;;;;;;;;;24.23;52.91;101714.97;5056099;28;19923;-72
2023/07/09 02:07:29;;;;;;;;;;;;;;;24.23;52.98;101710.38;5052536;28;19913;-72
2023/07/09 02:09:54;;;;;;;;;;;;;;;24.23;52.89;101714.97;5055314;28;19917;-73
2023/07/09 02:12:19;;;;;;;;;;;;;;;24.22;52.79;101719.56;5054828;28;20282;-72
2023/07/09 02:14:45;;;;;;;;;;;;;;;24.23;52.64;101714.97;5054680;28;19923;-72
2023/07/09 02:17:10;;;;;;;;;;;;;;;24.23;52.59;101723.13;5052556;28;19944;-72
2023/07/09 02:19:36;;;;;;;;;;;;;;;24.22;52.63;101721.44;5057046;28;19917;-72
2023/07/09 02:22:01;;;;;;;;;;;;;;;24.22;52.70;101721.44;5049676;28;20290;-72
2023/07/09 02:24:27;;;;;;;;;;;;;;;24.20;52.75;101725.16;5087269;28;19984;-72
2023/07/09 02:26:55;;;;;;;;;;;;;;;24.20;52.74;101719.72;5055038;28;19940;-72
2023/07/09 02:29:20;;;;;;;;;;;;;;;24.20;52.69;101719.72;5050106;28;19938;-72
2023/07/09 02:31:48;;;;;;;;;;;;;;;24.20;52.67;101724.34;5055558;28;19917;-72
2023/07/09 02:34:13;;;;;;;;;;;;;;;24.18;52.83;101721.81;5050587;28;19913;-72
2023/07/09 02:36:42;;;;;;;;;;;;;;;24.19;52.76;101731.63;5053857;28;19928;-72
2023/07/09 02:39:08;;;;;;;;;;;;;;;24.19;52.75;101738.94;5052924;28;19935;-72
2023/07/09 02:41:33;;;;;;;;;;;;;;;24.18;52.67;101738.09;5086489;28;19917;-72
2023/07/09 02:43:58;;;;;;;;;;;;;;;24.18;52.72;101743.53;5052070;28;19913;-72
2023/07/09 02:46:24;;;;;;;;;;;;;;;24.17;52.85;101739.16;5056536;28;19916;-72
2023/07/09 02:48:49;;;;;;;;;;;;;;;24.18;52.49;101731.84;5052892;28;19914;-72
2023/07/09 02:51:14;;;;;;;;;;;;;;;24.17;52.54;101730.13;5082637;28;19952;-72
2023/07/09 02:53:39;;;;;;;;;;;;;;;24.17;52.61;101741.88;5052257;28;19964;-73
2023/07/09 02:56:05;;;;;;;;;;;;;;;24.16;52.60;101740.16;5050559;28;19920;-72
2023/07/09 02:58:30;;;;;;;;;;;;;;;24.17;52.71;101743.72;5054614;28;19913;-72
2023/07/09 03:00:55;;;;;;;;;;;;;;;24.17;52.59;101738.28;5052812;28;19970;-72
2023/07/09 03:03:20;;;;;;;;;;;;;;;24.16;52.67;101737.44;5054816;28;19913;-72
2023/07/09 03:05:46;;;;;;;;;;;;;;;24.15;52.78;101727.59;5086317;28;19921;-72
2023/07/09 03:08:11;;;;;;;;;;;;;;;24.15;52.77;101733.03;5086379;28;19917;-72
2023/07/09 03:10:37;;;;;;;;;;;;;;;24.15;52.85;101737.63;5067754;28;19913;-72
2023/07/09 03:13:02;;;;;;;;;;;;;;;24.15;52.68;101734.91;5053343;28;19912;-72
2023/07/09 03:15:27;;;;;;;;;;;;;;;24.14;52.54;101736.78;5052932;28;19924;-72
2023/07/09 03:17:52;;;;;;;;;;;;;;;24.13;52.56;101735.09;5049467;28;19996;-72
2023/07/09 03:20:17;;;;;;;;;;;;;;;24.15;52.79;101737.63;5056175;28;19921;-72
2023/07/09 03:22:43;;;;;;;;;;;;;;;24.14;52.67;101744.09;5048152;28;20105;-71
2023/07/09 03:25:08;;;;;;;;;;;;;;;23.65;52.75;101663.00;5086756;28;19928;-72
2023/07/09 03:27:33;;;;;;;;;;;;;;;24.12;52.69;101740.69;5084587;28;19940;-72
2023/07/09 03:30:00;;;;;;;;;;;;;;;24.12;52.79;101741.53;5050069;28;19913;-72
2023/07/09 03:32:25;;;;;;;;;;;;;;;24.11;52.59;101737.16;5084964;28;19936;-72
2023/07/09 03:34:52;;;;;;;;;;;;;;;24.11;52.68;101739.88;5052989;28;19917;-72
2023/07/09 03:37:18;;;;;;;;;;;;;;;24.11;52.71;101728.16;5054516;28;20049;-72
2023/07/09 03:39:45;;;;;;;;;;;;;;;24.11;52.59;101728.16;5052701;28;19925;-72
2023/07/09 03:42:10;;;;;;;;;;;;;;;24.10;52.63;101730.03;5052980;28;19913;-72
2023/07/09 03:44:35;;;;;;;;;;;;;;;24.09;52.65;101725.63;5050965;28;19980;-72
2023/07/09 03:47:00;;;;;;;;;;;;;;;24.10;52.57;101727.31;5052936;28;19913;-72
2023/07/09 03:49:26;;;;;;;;;;;;;;;24.10;52.64;101726.47;5050262;28;20466;-72
2023/07/09 03:51:51;;;;;;;;;;;;;;;24.09;52.53;101738.38;5051728;28;20516;-72
2023/07/09 03:54:16;;;;;;;;;;;;;;;24.09;52.69;101741.94;5051597;28;19913;-72
2023/07/09 03:56:41;;;;;;;;;;;;;;;24.09;52.65;101735.66;5050153;28;19924;-72
2023/07/09 03:59:06;;;;;;;;;;;;;;;24.08;52.28;101739.38;5054738;28;19913;-73
2023/07/09 04:01:32;;;;;;;;;;;;;;;24.08;52.63;101742.94;5052118;28;19943;-72
2023/07/09 04:03:57;;;;;;;;;;;;;;;24.07;52.70;101741.25;5085493;28;19920;-72
2023/07/09 04:06:22;;;;;;;;;;;;;;;24.07;52.53;101741.25;5051277;28;19913;-72
2023/07/09 04:08:47;;;;;;;;;;;;;;;24.07;52.58;101752.13;5053281;28;19917;-72
2023/07/09 04:11:12;;;;;;;;;;;;;;;24.07;52.55;101756.72;5051881;28;20133;-73
2023/07/09 04:13:38;;;;;;;;;;;;;;;24.07;52.60;101746.69;5053678;28;20007;-72
2023/07/09 04:16:03;;;;;;;;;;;;;;;24.07;52.64;101749.41;5049795;28;20512;-72
2023/07/09 04:18:29;;;;;;;;;;;;;;;24.06;52.64;101750.44;5049334;28;19949;-72
2023/07/09 04:20:54;;;;;;;;;;;;;;;24.06;52.67;101747.72;5050808;28;19917;-72
2023/07/09 04:23:19;;;;;;;;;;;;;;;24.07;52.50;101756.72;5047243;28;19913;-72
2023/07/09 04:25:45;;;;;;;;;;;;;;;24.06;52.54;101750.44;5084345;28;19940;-73
2023/07/09 04:28:10;;;;;;;;;;;;;;;24.07;52.55;101759.44;5052577;28;19934;-72
2023/07/09 04:30:35;;;;;;;;;;;;;;;24.07;52.46;101756.72;5052811;28;20400;-73
2023/07/09 04:33:00;;;;;;;;;;;;;;;24.07;52.49;101764.88;5051814;28;20053;-72
2023/07/09 04:35:26;;;;;;;;;;;;;;;24.05;52.66;101762.34;5052021;28;20443;-72
2023/07/09 04:37:51;;;;;;;;;;;;;;;24.06;52.59;101768.63;5053381;28;19913;-73
2023/07/09 04:40:17;;;;;;;;;;;;;;;24.06;52.37;101760.47;5051545;28;19967;-72
2023/07/09 04:42:43;;;;;;;;;;;;;;;24.06;52.48;101765.91;5050341;28;20544;-72
2023/07/09 04:45:09;;;;;;;;;;;;;;;24.05;52.53;101765.06;5048711;28;19917;-72
2023/07/09 04:47:34;;;;;;;;;;;;;;;24.06;52.53;101765.91;5050416;28;19952;-72
2023/07/09 04:49:59;;;;;;;;;;;;;;;24.05;52.44;101756.91;5046547;28;19913;-72
2023/07/09 04:52:24;;;;;;;;;;;;;;;24.05;52.47;101762.34;5052466;28;20526;-72
2023/07/09 04:54:50;;;;;;;;;;;;;;;24.06;52.25;101764.03;5052490;28;19913;-72
2023/07/09 04:57:15;;;;;;;;;;;;;;;24.05;52.36;101767.78;5048841;28;19936;-72
2023/07/09 04:59:41;;;;;;;;;;;;;;;24.05;52.47;101769.66;5084615;28;19924;-72
2023/07/09 05:02:06;;;;;;;;;;;;;;;24.06;52.31;101771.34;5052559;28;19917;-72
2023/07/09 05:04:32;;;;;;;;;;;;;;;24.05;52.42;101770.50;5045898;28;19923;-72
2023/07/09 05:06:57;;;;;;;;;;;;;;;24.05;52.41;101775.09;5044855;28;20447;-72
2023/07/09 05:09:23;;;;;;;;;;;;;;;24.05;52.61;101775.09;5050130;28;19917;-72
2023/07/09 05:11:48;;;;;;;;;;;;;;;24.05;52.50;101773.22;5046091;28;19963;-72
2023/07/09 05:14:14;;;;;;;;;;;;;;;24.05;52.55;101766.94;5052568;28;19917;-72
2023/07/09 05:16:39;;;;;;;;;;;;;;;24.05;52.41;101773.22;5049573;28;19976;-72
2023/07/09 05:19:04;;;;;;;;;;;;;;;24.04;52.62;101768.78;5048890;28;19932;-72
2023/07/09 05:21:29;;;;;;;;;;;;;;;24.05;52.47;101769.66;5083804;28;19960;-72
2023/07/09 05:23:54;;;;;;;;;;;;;;;24.04;52.50;101760.63;5048689;28;19979;-72
2023/07/09 05:26:20;;;;;;;;;;;;;;;24.04;52.45;101766.06;5052562;28;19919;-72
2023/07/09 05:28:45;;;;;;;;;;;;;;;24.04;52.31;101766.06;5050655;28;19917;-72
2023/07/09 05:31:10;;;;;;;;;;;;;;;24.06;52.49;101771.34;5051479;28;19969;-72
2023/07/09 05:33:35;;;;;;;;;;;;;;;24.05;52.19;101762.34;5049726;28;19913;-72
2023/07/09 05:36:02;;;;;;;;;;;;;;;24.04;52.54;101763.34;5051662;28;19920;-72
2023/07/09 05:38:27;;;;;;;;;;;;;;;24.05;52.32;101767.78;5049760;28;19976;-72
2023/07/09 05:41:04;;;;;;;;;;;;;;;24.05;52.20;101766.94;5049931;28;19944;-72
2023/07/09 05:43:29;;;;;;;;;;;;;;;24.04;52.33;101763.34;5051350;28;19917;-72
2023/07/09 05:45:55;;;;;;;;;;;;;;;24.04;52.50;101763.34;5050862;28;19923;-72
2023/07/09 05:48:20;;;;;;;;;;;;;;;24.04;52.33;101765.22;5053523;28;19979;-72
2023/07/09 05:50:45;;;;;;;;;;;;;;;24.04;52.35;101767.94;5051268;28;20014;-72
2023/07/09 05:53:10;;;;;;;;;;;;;;;24.04;52.33;101766.06;5055827;28;20008;-73
2023/07/09 05:55:35;;;;;;;;;;;;;;;24.04;52.35;101770.66;5055166;28;19960;-72
2023/07/09 05:58:01;;;;;;;;;;;;;;;24.05;52.23;101772.38;5053385;28;19918;-72
2023/07/09 06:00:26;;;;;;;;;;;;;;;24.04;52.29;101768.78;5054427;28;19984;-72
2023/07/09 06:02:51;;;;;;;;;;;;;;;24.03;52.18;101769.81;5055619;28;20016;-72
2023/07/09 06:05:16;;;;;;;;;;;;;;;24.04;52.17;101776.94;5052279;28;19975;-72
2023/07/09 06:07:41;;;;;;;;;;;;;;;24.04;52.37;101774.22;5051659;28;20048;-72
2023/07/09 06:10:07;;;;;;;;;;;;;;;24.04;52.19;101774.22;5057393;28;19919;-72
2023/07/09 06:12:33;;;;;;;;;;;;;;;24.05;52.20;101777.81;5051592;28;19920;-72
2023/07/09 06:15:00;;;;;;;;;;;;;;;24.05;52.31;101777.81;5053847;28;19916;-72
2023/07/09 06:17:26;;;;;;;;;;;;;;;24.04;52.35;101779.66;5051757;28;19921;-72
2023/07/09 06:19:51;;;;;;;;;;;;;;;24.05;52.32;101788.66;5054231;28;19971;-72
2023/07/09 06:22:16;;;;;;;;;;;;;;;24.05;52.29;101786.78;5055521;28;20010;-72
2023/07/09 06:24:42;;;;;;;;;;;;;;;24.05;52.30;101786.78;5053237;28;19944;-72
2023/07/09 06:27:07;;;;;;;;;;;;;;;24.04;52.32;101787.78;5086187;28;20274;-72
2023/07/09 06:29:32;;;;;;;;;;;;;;;24.05;52.35;101785.94;5053460;28;19913;-72
2023/07/09 06:32:01;;;;;;;;;;;;;;;24.05;52.42;101792.22;5054266;28;19972;-72
2023/07/09 06:34:26;;;;;;;;;;;;;;;24.05;52.14;101794.09;5052325;28;19920;-72
2023/07/09 06:36:51;;;;;;;;;;;;;;;24.05;52.26;101797.66;5054216;28;19913;-73
2023/07/09 06:39:19;;;;;;;;;;;;;;;24.06;52.38;101793.06;5049828;28;19913;-72
2023/07/09 06:41:44;;;;;;;;;;;;;;;24.05;52.30;101792.22;5052603;28;20425;-72
2023/07/09 06:44:09;;;;;;;;;;;;;;;24.06;52.28;101803.94;5051080;28;19920;-76
2023/07/09 06:46:35;;;;;;;;;;;;;;;24.07;52.39;101797.47;5050380;28;19917;-75
2023/07/09 06:49:01;;;;;;;;;;;;;;;24.06;52.28;101804.78;5080706;28;19939;-75
2023/07/09 06:51:26;;;;;;;;;;;;;;;24.06;52.39;101804.78;5050879;28;20525;-75
2023/07/09 06:53:51;;;;;;;;;;;;;;;24.06;52.30;101803.94;5054349;28;19984;-76
2023/07/09 06:56:16;;;;;;;;;;;;;;;24.06;52.55;101814.81;5054707;28;19913;-76
2023/07/09 06:58:42;;;;;;;;;;;;;;;24.06;52.48;101806.66;5053859;28;19940;-75
2023/07/09 07:01:10;;;;;;;;;;;;;;;24.06;52.43;101807.50;5049364;28;19956;-75
2023/07/09 07:03:36;;;;;;;;;;;;;;;24.07;52.40;101811.06;5054492;28;19963;-76
2023/07/09 07:06:01;;;;;;;;;;;;;;;24.07;52.23;101813.75;5051171;28;19913;-74
2023/07/09 07:08:26;;;;;;;;;;;;;;;24.07;52.39;101816.47;5085046;28;19917;-76
2023/07/09 07:11:02;;;;;;;;;;;;;;;24.07;52.21;101806.47;5048533;28;19917;-73
2023/07/09 07:13:34;;;;;;;;;;;;;;;24.07;52.41;101801.03;5066470;28;19939;-73
2023/07/09 07:16:00;;;;;;;;;;;;;;;24.07;52.61;101808.34;5084538;28;19944;-74
2023/07/09 07:18:25;;;;;;;;;;;;;;;24.08;52.77;101799.16;5051066;28;19922;-75
2023/07/09 07:20:51;;;;;;;;;;;;;;;24.08;52.70;101801.88;5053262;28;19939;-73
2023/07/09 07:23:16;;;;;;;;;;;;;;;24.08;52.72;101802.72;5069231;28;20003;-74
2023/07/09 07:25:41;;;;;;;;;;;;;;;24.09;52.76;101806.28;5053977;28;19921;-72
2023/07/09 07:28:07;;;;;;;;;;;;;;;24.09;52.69;101803.59;5083892;28;19985;-72
2023/07/09 07:30:32;;;;;;;;;;;;;;;24.09;52.72;101807.13;5086625;28;19939;-72
2023/07/09 07:32:57;;;;;;;;;;;;;;;24.10;52.77;101805.25;5049129;28;19951;-71
2023/07/09 07:35:23;;;;;;;;;;;;;;;24.09;52.88;101795.44;5051646;28;19913;-71
2023/07/09 07:37:48;;;;;;;;;;;;;;;24.09;52.91;101796.28;5051658;28;19913;-71
2023/07/09 07:40:13;;;;;;;;;;;;;;;24.11;52.95;101805.06;5077868;28;20012;-71
2023/07/09 07:42:38;;;;;;;;;;;;;;;24.11;53.20;101801.50;5051700;28;19920;-73
2023/07/09 07:45:05;;;;;;;;;;;;;;;24.11;53.20;101796.91;5053114;28;19925;-72
2023/07/09 07:47:30;;;;;;;;;;;;;;;24.11;53.17;101798.78;5050412;28;19924;-72
2023/07/09 07:49:56;;;;;;;;;;;;;;;24.12;53.14;101797.75;5084494;28;19917;-72
2023/07/09 07:52:21;;;;;;;;;;;;;;;24.11;53.39;101794.19;5050831;28;19924;-72
2023/07/09 07:54:46;;;;;;;;;;;;;;;24.12;53.30;101803.19;5050760;28;19948;-72
2023/07/09 07:57:11;;;;;;;;;;;;;;;24.13;53.44;101804.91;5050682;28;19944;-72
2023/07/09 07:59:37;;;;;;;;;;;;;;;24.13;53.56;101803.03;5052146;28;19917;-73
2023/07/09 08:02:03;;;;;;;;;;;;;;;24.13;53.25;101802.19;5047603;28;20015;-76
2023/07/09 08:04:28;;;;;;;;;;;;;;;24.14;53.53;101793.84;5032210;28;19919;-74
2023/07/09 08:06:53;;;;;;;;;;;;;;;24.14;53.53;101793.84;5044347;28;20397;-75
2023/07/09 08:09:19;;;;;;;;;;;;;;;24.14;53.46;101799.28;5031479;28;19913;-73
2023/07/09 08:11:44;;;;;;;;;;;;;;;24.15;53.55;101794.69;5077458;28;19917;-74
2023/07/09 08:14:09;;;;;;;;;;;;;;;24.16;53.57;101793.66;5049756;28;20081;-73
2023/07/09 08:16:34;;;;;;;;;;;;;;;24.16;53.72;101786.34;5052104;28;19974;-73
2023/07/09 08:19:00;;;;;;;;;;;;;;;24.18;53.51;101788.91;5051168;28;19956;-73
2023/07/09 08:21:25;;;;;;;;;;;;;;;24.19;53.62;101785.16;5051492;28;19917;-73
2023/07/09 08:23:50;;;;;;;;;;;;;;;24.20;53.70;101786.81;5051796;28;19928;-74
2023/07/09 08:26:15;;;;;;;;;;;;;;;24.21;53.50;101788.50;5053340;28;19912;-74
2023/07/09 08:28:40;;;;;;;;;;;;;;;24.22;53.51;101790.22;5047832;28;19920;-73
2023/07/09 08:31:06;;;;;;;;;;;;;;;24.23;53.59;101796.50;5046416;28;19928;-75
2023/07/09 08:33:31;;;;;;;;;;;;;;;24.22;53.57;101787.50;5047157;28;19975;-72
2023/07/09 08:35:56;;;;;;;;;;;;;;;24.24;53.77;101795.47;5047840;28;19923;-73
2023/07/09 08:38:22;;;;;;;;;;;;;;;24.24;53.75;101787.31;5047598;28;20422;-72
2023/07/09 08:40:56;;;;;;;;;;;;;;;24.24;53.84;101792.75;5047761;28;19921;-73
2023/07/09 08:43:30;;;;;;;;;;;;;;;24.24;53.71;101790.88;5080895;28;19921;-72
2023/07/09 08:46:14;;;;;;;;;;;;;;;24.27;53.64;101798.66;5042124;28;20008;-73
2023/07/09 08:48:40;;;;;;;;;;;;;;;24.26;53.75;101782.56;5051032;28;19920;-73
2023/07/09 08:51:10;;;;;;;;;;;;;;;24.26;54.21;101779.84;5050154;28;19951;-73
2023/07/09 08:53:37;;;;;;;;;;;;;;;24.28;54.18;101783.19;5050104;28;19921;-72
2023/07/09 08:56:02;;;;;;;;;;;;;;;24.29;54.17;101787.59;5046233;28;19948;-72
2023/07/09 08:58:29;;;;;;;;;;;;;;;24.30;54.20;101786.56;5033537;28;19971;-73
2023/07/09 09:00:55;;;;;;;;;;;;;;;24.32;54.03;101787.25;5081665;28;19917;-72
2023/07/09 09:03:20;;;;;;;;;;;;;;;24.33;53.97;101786.22;5048927;28;19924;-75
2023/07/09 09:05:45;;;;;;;;;;;;;;;24.34;53.93;101779.72;5049533;28;19917;-75
2023/07/09 09:08:19;;;;;;;;;;;;;;;24.34;54.10;101768.88;5047099;28;19924;-74
2023/07/09 09:10:48;;;;;;;;;;;;;;;24.35;53.88;101774.13;5049212;28;19921;-73
2023/07/09 09:13:16;;;;;;;;;;;;;;;24.35;54.18;101774.13;5062495;28;20004;-73
2023/07/09 09:15:45;;;;;;;;;;;;;;;24.37;54.09;101776.66;5048180;28;19913;-73
2023/07/09 09:18:25;;;;;;;;;;;;;;;24.36;54.00;101777.69;5046675;28;19925;-73
2023/07/09 09:21:06;;;;;;;;;;;;;;;24.37;53.92;101776.66;5081608;28;19932;-73
2023/07/09 09:23:36;;;;;;;;;;;;;;;24.37;54.15;101780.25;5031669;28;20322;-73
2023/07/09 09:26:01;;;;;;;;;;;;;;;24.38;54.16;101775.66;5068608;28;19920;-73
2023/07/09 09:28:26;;;;;;;;;;;;;;;24.38;54.32;101773.81;5049936;28;19917;-73
2023/07/09 09:30:52;;;;;;;;;;;;;;;24.39;54.42;101777.38;5049380;28;19920;-72
2023/07/09 09:33:18;;;;;;;;;;;;;;;24.38;54.21;101771.09;5052540;28;20000;-72
2023/07/09 09:35:49;;;;;;;;;;;;;;;24.40;54.45;101773.63;5049383;28;19916;-72
2023/07/09 09:38:19;;;;;;;;;;;;;;;24.40;54.48;101769.03;5055035;28;19925;-73
2023/07/09 09:40:44;;;;;;;;;;;;;;;24.41;54.46;101769.84;5048102;28;19928;-73
2023/07/09 09:43:11;;;;;;;;;;;;;;;24.42;54.52;101766.97;5052193;28;19916;-73
2023/07/09 09:45:38;;;;;;;;;;;;;;;24.42;54.54;101774.25;5081491;28;19952;-73
2023/07/09 09:48:14;;;;;;;;;;;;;;;24.43;54.36;101768.66;5053242;28;19917;-73
2023/07/09 09:50:40;;;;;;;;;;;;;;;24.44;54.38;101762.19;5053099;28;20375;-74
2023/07/09 09:53:06;;;;;;;;;;;;;;;24.45;54.50;101760.31;5053046;28;19974;-73
2023/07/09 09:55:32;;;;;;;;;;;;;;;24.46;54.44;101764.72;5051597;28;19922;-73
2023/07/09 09:57:57;;;;;;;;;;;;;;;24.48;54.59;101762.66;5051711;28;19948;-73
2023/07/09 10:00:24;;;;;;;;;;;;;;;24.49;54.62;101761.63;5051363;28;19924;-73
2023/07/09 10:02:50;;;;;;;;;;;;;;;24.50;54.38;101760.59;5081598;28;19972;-72
2023/07/09 10:05:16;;;;;;;;;;;;;;;24.51;54.55;101764.16;5051637;28;19917;-71
2023/07/09 10:07:43;;;;;;;;;;;;;;;24.50;54.53;101760.59;5086355;28;19921;-71
2023/07/09 10:10:11;;;;;;;;;;;;;;;24.48;54.58;101754.50;5052493;28;19921;-71
2023/07/09 10:12:47;;;;;;;;;;;;;;;24.49;54.51;101761.63;5034239;28;20000;-71
2023/07/09 10:15:19;;;;;;;;;;;;;;;24.48;54.62;101759.09;5053019;28;19940;-73
2023/07/09 10:18:05;;;;;;;;;;;;;;;24.47;54.52;101757.41;5050334;28;19983;-72
2023/07/09 10:20:38;;;;;;;;;;;;;;;24.46;54.81;101766.59;5056630;28;19921;-78
2023/07/09 10:23:03;;;;;;;;;;;;;;;24.44;54.66;101755.91;5047440;28;19913;-72
2023/07/09 10:25:30;;;;;;;;;;;;;;;24.43;54.72;101763.22;5051369;28;19920;-73
2023/07/09 10:28:01;;;;;;;;;;;;;;;24.43;55.10;101754.22;5070699;28;19921;-73
2023/07/09 10:30:27;;;;;;;;;;;;;;;24.42;55.05;101750.66;5045937;28;19921;-73
2023/07/09 10:33:11;;;;;;;;;;;;;;;24.41;55.09;101746.25;5054255;28;19927;-74
2023/07/09 10:36:05;;;;;;;;;;;;;;;24.41;55.17;101743.53;5049632;28;19917;-74
2023/07/09 10:38:37;;;;;;;;;;;;;;;24.41;55.40;101735.38;5055021;28;20067;-72
2023/07/09 10:41:05;;;;;;;;;;;;;;;24.41;55.39;101742.69;5043201;28;21010;-70
2023/07/09 10:43:30;;;;;;;;;;;;;;;24.41;55.22;101734.53;5043397;28;19927;-71
2023/07/09 10:45:56;;;;;;;;;;;;;;;24.42;55.60;101733.50;5062293;28;20011;-71
2023/07/09 10:48:31;;;;;;;;;;;;;;;24.43;55.34;101732.47;5045117;28;19971;-72
2023/07/09 10:50:56;;;;;;;;;;;;;;;24.43;55.35;101733.31;5057866;28;19924;-72
2023/07/09 10:53:28;;;;;;;;;;;;;;;24.42;55.52;101733.50;5054598;28;19944;-73
2023/07/09 10:55:55;;;;;;;;;;;;;;;24.43;55.57;101730.59;5044238;28;20657;-72
2023/07/09 10:58:29;;;;;;;;;;;;;;;24.44;55.88;101723.28;5042128;28;19936;-72
2023/07/09 11:00:54;;;;;;;;;;;;;;;24.43;55.69;101733.31;5057062;28;19924;-73
2023/07/09 11:03:22;;;;;;;;;;;;;;;24.44;55.84;101724.13;5043106;28;19918;-71
2023/07/09 11:05:47;;;;;;;;;;;;;;;24.45;55.79;101727.69;5028838;28;19960;-74
2023/07/09 11:08:14;;;;;;;;;;;;;;;24.44;55.85;101723.28;5045412;28;19951;-74
2023/07/09 11:10:44;;;;;;;;;;;;;;;24.44;55.83;101718.69;5029053;28;20360;-74
2023/07/09 11:13:09;;;;;;;;;;;;;;;24.46;55.87;101720.38;5045375;28;19917;-73
2023/07/09 11:15:35;;;;;;;;;;;;;;;24.46;55.93;101712.22;5047345;28;20408;-74
2023/07/09 11:18:01;;;;;;;;;;;;;;;24.46;55.95;101718.50;5050045;28;19988;-74
2023/07/09 11:20:31;;;;;;;;;;;;;;;24.47;56.11;101711.19;5051651;28;19925;-74
2023/07/09 11:23:04;;;;;;;;;;;;;;;24.47;55.68;101720.22;5083111;28;19917;-75
2023/07/09 11:25:47;;;;;;;;;;;;;;;24.48;55.72;101730.03;5031731;28;19924;-74
2023/07/09 11:28:12;;;;;;;;;;;;;;;24.48;56.02;101727.31;5081717;28;19928;-74
2023/07/09 11:30:53;;;;;;;;;;;;;;;24.49;55.96;101718.13;5048283;28;19921;-74
2023/07/09 11:33:20;;;;;;;;;;;;;;;24.49;55.98;101709.97;5052576;28;20351;-73
2023/07/09 11:36:05;;;;;;;;;;;;;;;24.50;56.00;101708.94;5049798;28;20265;-71
2023/07/09 11:38:36;;;;;;;;;;;;;;;24.51;55.91;101698.91;5052403;28;19921;-73
2023/07/09 11:41:01;;;;;;;;;;;;;;;24.52;56.13;101703.34;5050397;28;19984;-72
2023/07/09 11:43:35;;;;;;;;;;;;;;;24.53;56.17;101700.41;5050591;28;19931;-72
2023/07/09 11:46:30;;;;;;;;;;;;;;;24.53;56.19;101694.97;5081023;28;19917;-71
2023/07/09 11:48:56;;;;;;;;;;;;;;;24.55;56.49;101694.78;5047083;28;19943;-72
2023/07/09 11:51:22;;;;;;;;;;;;;;;24.56;56.22;101693.78;5047286;28;19968;-70
2023/07/09 11:53:49;;;;;;;;;;;;;;;24.57;56.54;101690.03;5080684;28;19921;-73
2023/07/09 11:56:17;;;;;;;;;;;;;;;24.58;56.84;101695.25;5029926;28;19921;-74
2023/07/09 11:58:49;;;;;;;;;;;;;;;24.60;57.02;101695.94;5061911;28;20297;-74
2023/07/09 12:01:15;;;;;;;;;;;;;;;24.63;57.08;101686.53;5052787;28;19929;-75
2023/07/09 12:03:41;;;;;;;;;;;;;;;24.64;57.00;101686.38;5047669;28;19921;-75
2023/07/09 12:06:20;;;;;;;;;;;;;;;24.66;56.92;101680.72;5049926;28;19920;-75
2023/07/09 12:08:45;;;;;;;;;;;;;;;24.67;56.99;101679.69;5046344;28;19927;-74
2023/07/09 12:11:26;;;;;;;;;;;;;;;24.68;56.92;101682.25;5052530;28;20015;-76
2023/07/09 12:13:52;;;;;;;;;;;;;;;24.69;56.99;101675.75;5049174;28;19917;-75
2023/07/09 12:16:21;;;;;;;;;;;;;;;24.72;57.01;101682.69;5050866;28;19972;-75
2023/07/09 12:18:46;;;;;;;;;;;;;;;24.72;56.79;101692.72;5047944;28;20587;-75
2023/07/09 12:21:11;;;;;;;;;;;;;;;24.72;56.92;101696.28;5049744;28;20367;-76
2023/07/09 12:23:39;;;;;;;;;;;;;;;24.72;56.83;101690.84;5078800;28;20679;-75
2023/07/09 12:26:04;;;;;;;;;;;;;;;24.72;56.89;101690.00;5047519;28;19917;-76
2023/07/09 12:28:30;;;;;;;;;;;;;;;24.71;57.12;101683.72;5074435;28;19921;-76
2023/07/09 12:30:55;;;;;;;;;;;;;;;24.71;57.38;101686.44;5049887;28;20067;-75
2023/07/09 12:33:21;;;;;;;;;;;;;;;24.72;57.36;101687.28;5051718;28;19979;-76